Cumberland, MD (21501)

9:54 AM EST on February 24, 2017 (GMT -0500)
Mapleside | | Change Station

Elev 764 ft 39.64 °N, 78.75 °W | Updated 1 second ago

Scattered Clouds
Scattered Clouds
59.4 °F
Feels Like 59.4 °F
N
0.0
Wind Variable Wind from SSW
Gusts 0.0 mph

Today
High -- | Low -- °F
--% Chance of Precip.
Yesterday
High -- | Low -- °F
Precip. -- in
Pressure 29.92 in
Visibility 10.0 miles
Clouds Scattered Clouds 8000 ft
Scattered Clouds 9000 ft
Dew Point 49 °F
Humidity 69%
Rainfall 0.00 in
Snow Depth Not available.
6:54 AM 6:01 PM
Waning Crescent, 5% visible
METAR KCBE 241442Z AUTO 00000KT 10SM SCT080 SCT090 15/10 A2992 RMK AO1
Pressure 29.92 in
Visibility 10.0 miles
Clouds Scattered Clouds 8000 ft
Scattered Clouds 9000 ft
Dew Point 49 °F
Humidity 69%
Rainfall 0.00 in
Snow Depth Not available.
6:54 AM 6:01 PM
Waning Crescent, 5% visible
METAR KCBE 241442Z AUTO 00000KT 10SM SCT080 SCT090 15/10 A2992 RMK AO1

Get Your Daily Forecast Email!

Thanks for signing up!

Be on the lookout for a verification email in your inbox.

You'll start receiving the daily forecast at 8 AM.

×

10-Day Weather Forecast

Almanac

Astronomy

Feb. 24, 2017 Rise Set
Actual Time
Civil Twilight
Nautical Twilight
Astronomical Twilight
Moon
Length of Visible Light
Length of Day
Tomorrow will be .
, % of the Moon is Illuminated

Today's Extremes

State Highs State Lows

Community

WunderPhotos

Upload Photos

1,962,540 photos uploaded!

WunderBlog® & News

Nearby

Air Quality

  Air Quality AQ Index Pollutant
Not available.

Snow Depth

Station Depth Elevation

Earthquake Activity

City Distance Mag. Time & Date
Minimum magnitude displayed is 2.5.

Coastal Water Temperatures

Place Temperature

Stations

Nearby Weather Stations

Station Location Temp. Windchill Dew Point Humidity Wind Precip. Elev Updated Type
                   

Watches & Warnings

There are currently no watches in effect.